Terminal Aerodrome Forecast
Issued by NWS

Home | Current Version | Previous Version | Text Only | Print | Product List | Glossary On
Versions: 1 2 3 4 5 6 7 8 9 10 11 12 13 14 15 16 17 18 19 20 21 22 23 24 25 26 27
000
FTUS41 KOKX 212200 AAB
TAFSWF
TAF AMD
KSWF 212210Z 2122/2224 VRB05KT P6SM SCT015 BKN035
      TEMPO 2122/2124 6SM -SHRA BKN015
     FM220800 05007KT 4SM -SHRA BR BKN010
     FM221200 04009KT 4SM -SHRA BR BKN008
     FM221800 02011KT 6SM -SHRA BKN010
      AMD NOT SKED=

USA.gov is the U.S. government's official web portal to all federal, state and local government web resources and services.